sensor_id;sensor_type;location;lat;lon;timestamp;P1;durP1;ratioP1;P2;durP2;ratioP2
20928;SDS011;21895;47.072;15.132;2023-05-20T00:00:40;8.80;;;6.33;;
20928;SDS011;21895;47.072;15.132;2023-05-20T00:03:07;12.13;;;6.70;;
20928;SDS011;21895;47.072;15.132;2023-05-20T00:05:33;12.67;;;6.30;;
20928;SDS011;21895;47.072;15.132;2023-05-20T00:08:00;13.77;;;7.50;;
20928;SDS011;21895;47.072;15.132;2023-05-20T00:10:29;10.57;;;7.20;;
20928;SDS011;21895;47.072;15.132;2023-05-20T00:12:55;10.90;;;7.27;;
20928;SDS011;21895;47.072;15.132;2023-05-20T00:15:22;12.40;;;7.50;;
20928;SDS011;21895;47.072;15.132;2023-05-20T00:17:48;14.83;;;6.87;;
20928;SDS011;21895;47.072;15.132;2023-05-20T00:20:15;10.80;;;6.93;;
20928;SDS011;21895;47.072;15.132;2023-05-20T00:22:42;14.90;;;7.63;;
20928;SDS011;21895;47.072;15.132;2023-05-20T00:25:09;14.73;;;7.70;;
20928;SDS011;21895;47.072;15.132;2023-05-20T00:27:35;13.10;;;7.27;;
20928;SDS011;21895;47.072;15.132;2023-05-20T00:30:02;12.03;;;7.20;;
20928;SDS011;21895;47.072;15.132;2023-05-20T00:32:29;13.57;;;7.30;;
20928;SDS011;21895;47.072;15.132;2023-05-20T00:34:56;14.53;;;7.70;;
20928;SDS011;21895;47.072;15.132;2023-05-20T00:37:24;13.43;;;7.10;;
20928;SDS011;21895;47.072;15.132;2023-05-20T00:39:51;13.33;;;6.87;;
20928;SDS011;21895;47.072;15.132;2023-05-20T00:42:21;17.57;;;7.23;;
20928;SDS011;21895;47.072;15.132;2023-05-20T00:44:50;10.80;;;6.80;;
20928;SDS011;21895;47.072;15.132;2023-05-20T00:47:18;12.90;;;7.70;;
20928;SDS011;21895;47.072;15.132;2023-05-20T00:49:57;11.43;;;7.43;;
20928;SDS011;21895;47.072;15.132;2023-05-20T00:52:24;11.60;;;7.63;;
20928;SDS011;21895;47.072;15.132;2023-05-20T00:54:56;10.87;;;7.50;;
20928;SDS011;21895;47.072;15.132;2023-05-20T00:57:24;13.67;;;8.20;;
20928;SDS011;21895;47.072;15.132;2023-05-20T00:59:51;11.43;;;8.17;;
20928;SDS011;21895;47.072;15.132;2023-05-20T01:02:18;17.63;;;8.23;;
20928;SDS011;21895;47.072;15.132;2023-05-20T01:04:45;13.60;;;8.47;;
20928;SDS011;21895;47.072;15.132;2023-05-20T01:07:12;14.30;;;9.50;;
20928;SDS011;21895;47.072;15.132;2023-05-20T01:09:43;16.47;;;8.53;;
20928;SDS011;21895;47.072;15.132;2023-05-20T01:12:25;14.60;;;8.63;;
20928;SDS011;21895;47.072;15.132;2023-05-20T01:15:06;16.00;;;8.90;;
20928;SDS011;21895;47.072;15.132;2023-05-20T01:17:37;13.30;;;8.60;;
20928;SDS011;21895;47.072;15.132;2023-05-20T01:20:09;17.03;;;9.10;;
20928;SDS011;21895;47.072;15.132;2023-05-20T01:22:48;14.17;;;7.80;;
20928;SDS011;21895;47.072;15.132;2023-05-20T01:25:21;14.37;;;7.63;;
20928;SDS011;21895;47.072;15.132;2023-05-20T01:27:49;11.07;;;7.17;;
20928;SDS011;21895;47.072;15.132;2023-05-20T01:30:18;10.20;;;7.13;;
20928;SDS011;21895;47.072;15.132;2023-05-20T01:32:47;10.60;;;6.87;;
20928;SDS011;21895;47.072;15.132;2023-05-20T01:35:22;10.80;;;7.10;;
20928;SDS011;21895;47.072;15.132;2023-05-20T01:37:49;16.73;;;6.70;;
20928;SDS011;21895;47.072;15.132;2023-05-20T01:40:18;11.00;;;7.60;;
20928;SDS011;21895;47.072;15.132;2023-05-20T01:42:45;14.95;;;7.55;;
20928;SDS011;21895;47.072;15.132;2023-05-20T01:45:17;11.43;;;7.77;;
20928;SDS011;21895;47.072;15.132;2023-05-20T01:47:44;13.80;;;8.55;;
20928;SDS011;21895;47.072;15.132;2023-05-20T01:50:11;13.13;;;8.23;;
20928;SDS011;21895;47.072;15.132;2023-05-20T01:52:38;12.93;;;8.20;;
20928;SDS011;21895;47.072;15.132;2023-05-20T01:55:04;12.13;;;8.40;;
20928;SDS011;21895;47.072;15.132;2023-05-20T01:57:31;13.03;;;8.40;;
20928;SDS011;21895;47.072;15.132;2023-05-20T01:59:58;12.63;;;8.07;;
20928;SDS011;21895;47.072;15.132;2023-05-20T02:02:24;11.93;;;7.95;;
20928;SDS011;21895;47.072;15.132;2023-05-20T02:04:52;18.50;;;8.87;;
20928;SDS011;21895;47.072;15.132;2023-05-20T02:07:19;12.67;;;8.70;;
20928;SDS011;21895;47.072;15.132;2023-05-20T02:09:46;13.73;;;8.57;;
20928;SDS011;21895;47.072;15.132;2023-05-20T02:12:13;13.37;;;8.80;;
20928;SDS011;21895;47.072;15.132;2023-05-20T02:14:43;12.37;;;8.23;;
20928;SDS011;21895;47.072;15.132;2023-05-20T02:17:11;12.50;;;7.43;;
20928;SDS011;21895;47.072;15.132;2023-05-20T02:19:42;10.87;;;7.37;;
20928;SDS011;21895;47.072;15.132;2023-05-20T02:22:09;16.80;;;7.03;;
20928;SDS011;21895;47.072;15.132;2023-05-20T02:24:36;13.43;;;7.50;;
20928;SDS011;21895;47.072;15.132;2023-05-20T02:27:02;12.37;;;8.30;;
20928;SDS011;21895;47.072;15.132;2023-05-20T02:29:30;18.50;;;9.57;;
20928;SDS011;21895;47.072;15.132;2023-05-20T02:31:57;15.53;;;9.60;;
20928;SDS011;21895;47.072;15.132;2023-05-20T02:34:24;13.53;;;8.93;;
20928;SDS011;21895;47.072;15.132;2023-05-20T02:36:52;16.33;;;8.87;;
20928;SDS011;21895;47.072;15.132;2023-05-20T02:39:19;17.40;;;7.70;;
20928;SDS011;21895;47.072;15.132;2023-05-20T02:41:45;12.47;;;7.80;;
20928;SDS011;21895;47.072;15.132;2023-05-20T02:44:12;12.27;;;7.93;;
20928;SDS011;21895;47.072;15.132;2023-05-20T02:46:39;15.37;;;8.43;;
20928;SDS011;21895;47.072;15.132;2023-05-20T02:49:05;17.03;;;9.40;;
20928;SDS011;21895;47.072;15.132;2023-05-20T02:51:35;17.87;;;8.97;;
20928;SDS011;21895;47.072;15.132;2023-05-20T02:54:01;19.30;;;9.80;;
20928;SDS011;21895;47.072;15.132;2023-05-20T02:56:28;14.63;;;9.17;;
20928;SDS011;21895;47.072;15.132;2023-05-20T02:58:54;13.07;;;8.43;;
20928;SDS011;21895;47.072;15.132;2023-05-20T03:01:21;14.23;;;8.77;;
20928;SDS011;21895;47.072;15.132;2023-05-20T03:03:48;12.10;;;8.73;;
20928;SDS011;21895;47.072;15.132;2023-05-20T03:06:14;13.33;;;8.57;;
20928;SDS011;21895;47.072;15.132;2023-05-20T03:08:41;12.57;;;8.63;;
20928;SDS011;21895;47.072;15.132;2023-05-20T03:11:07;13.33;;;8.23;;
20928;SDS011;21895;47.072;15.132;2023-05-20T03:13:34;12.10;;;7.60;;
20928;SDS011;21895;47.072;15.132;2023-05-20T03:16:00;10.67;;;6.83;;
20928;SDS011;21895;47.072;15.132;2023-05-20T03:18:27;11.33;;;6.20;;
20928;SDS011;21895;47.072;15.132;2023-05-20T03:20:54;7.97;;;5.80;;
20928;SDS011;21895;47.072;15.132;2023-05-20T03:23:20;9.02;;;6.55;;
20928;SDS011;21895;47.072;15.132;2023-05-20T03:25:47;10.93;;;6.17;;
20928;SDS011;21895;47.072;15.132;2023-05-20T03:28:13;11.07;;;7.37;;
20928;SDS011;21895;47.072;15.132;2023-05-20T03:30:40;9.90;;;6.47;;
20928;SDS011;21895;47.072;15.132;2023-05-20T03:33:07;10.83;;;6.50;;
20928;SDS011;21895;47.072;15.132;2023-05-20T03:35:33;12.53;;;6.50;;
20928;SDS011;21895;47.072;15.132;2023-05-20T03:38:00;13.23;;;7.33;;
20928;SDS011;21895;47.072;15.132;2023-05-20T03:40:27;11.60;;;7.90;;
20928;SDS011;21895;47.072;15.132;2023-05-20T03:42:53;13.57;;;8.70;;
20928;SDS011;21895;47.072;15.132;2023-05-20T03:45:20;13.52;;;8.38;;
20928;SDS011;21895;47.072;15.132;2023-05-20T03:47:47;13.77;;;8.63;;
20928;SDS011;21895;47.072;15.132;2023-05-20T03:50:13;13.23;;;7.53;;
20928;SDS011;21895;47.072;15.132;2023-05-20T03:52:40;12.57;;;7.90;;
20928;SDS011;21895;47.072;15.132;2023-05-20T03:55:06;14.77;;;7.87;;
20928;SDS011;21895;47.072;15.132;2023-05-20T03:57:34;12.87;;;7.20;;
20928;SDS011;21895;47.072;15.132;2023-05-20T04:00:01;15.70;;;8.47;;
20928;SDS011;21895;47.072;15.132;2023-05-20T04:02:34;10.23;;;7.20;;
20928;SDS011;21895;47.072;15.132;2023-05-20T04:05:01;13.63;;;7.20;;
20928;SDS011;21895;47.072;15.132;2023-05-20T04:07:27;10.27;;;7.50;;
20928;SDS011;21895;47.072;15.132;2023-05-20T04:09:54;11.70;;;7.00;;
20928;SDS011;21895;47.072;15.132;2023-05-20T04:12:21;11.73;;;6.47;;
20928;SDS011;21895;47.072;15.132;2023-05-20T04:14:47;8.23;;;6.33;;
20928;SDS011;21895;47.072;15.132;2023-05-20T04:17:14;9.30;;;7.03;;
20928;SDS011;21895;47.072;15.132;2023-05-20T04:19:41;10.65;;;7.60;;
20928;SDS011;21895;47.072;15.132;2023-05-20T04:22:08;11.07;;;7.80;;
20928;SDS011;21895;47.072;15.132;2023-05-20T04:24:35;11.10;;;7.40;;
20928;SDS011;21895;47.072;15.132;2023-05-20T04:27:02;10.57;;;7.03;;
20928;SDS011;21895;47.072;15.132;2023-05-20T04:29:30;13.67;;;6.83;;
20928;SDS011;21895;47.072;15.132;2023-05-20T04:31:58;9.85;;;7.15;;
20928;SDS011;21895;47.072;15.132;2023-05-20T04:34:28;10.47;;;7.50;;
20928;SDS011;21895;47.072;15.132;2023-05-20T04:36:54;9.57;;;6.95;;
20928;SDS011;21895;47.072;15.132;2023-05-20T04:39:22;9.90;;;7.03;;
20928;SDS011;21895;47.072;15.132;2023-05-20T04:41:48;14.50;;;7.83;;
20928;SDS011;21895;47.072;15.132;2023-05-20T04:44:15;13.45;;;7.93;;
20928;SDS011;21895;47.072;15.132;2023-05-20T04:46:42;12.40;;;8.17;;
20928;SDS011;21895;47.072;15.132;2023-05-20T04:49:09;12.73;;;8.37;;
20928;SDS011;21895;47.072;15.132;2023-05-20T04:51:35;11.87;;;7.90;;
20928;SDS011;21895;47.072;15.132;2023-05-20T04:54:02;15.83;;;7.30;;
20928;SDS011;21895;47.072;15.132;2023-05-20T04:56:28;14.20;;;7.97;;
20928;SDS011;21895;47.072;15.132;2023-05-20T04:58:55;11.47;;;8.03;;
20928;SDS011;21895;47.072;15.132;2023-05-20T05:01:23;14.35;;;7.97;;
20928;SDS011;21895;47.072;15.132;2023-05-20T05:03:49;11.23;;;7.78;;
20928;SDS011;21895;47.072;15.132;2023-05-20T05:06:16;9.97;;;7.50;;
20928;SDS011;21895;47.072;15.132;2023-05-20T05:08:42;10.10;;;7.00;;
20928;SDS011;21895;47.072;15.132;2023-05-20T05:11:09;13.00;;;8.13;;
20928;SDS011;21895;47.072;15.132;2023-05-20T05:13:36;12.02;;;8.30;;
20928;SDS011;21895;47.072;15.132;2023-05-20T05:16:02;12.25;;;8.50;;
20928;SDS011;21895;47.072;15.132;2023-05-20T05:18:29;11.75;;;8.07;;
20928;SDS011;21895;47.072;15.132;2023-05-20T05:20:59;13.32;;;8.32;;
20928;SDS011;21895;47.072;15.132;2023-05-20T05:23:27;12.20;;;8.35;;
20928;SDS011;21895;47.072;15.132;2023-05-20T05:25:53;11.15;;;8.25;;
20928;SDS011;21895;47.072;15.132;2023-05-20T05:28:20;11.45;;;7.93;;
20928;SDS011;21895;47.072;15.132;2023-05-20T05:30:46;12.52;;;7.85;;
20928;SDS011;21895;47.072;15.132;2023-05-20T05:33:13;11.27;;;7.87;;
20928;SDS011;21895;47.072;15.132;2023-05-20T05:35:41;11.77;;;7.93;;
20928;SDS011;21895;47.072;15.132;2023-05-20T05:38:08;11.25;;;7.95;;
20928;SDS011;21895;47.072;15.132;2023-05-20T05:40:35;10.77;;;7.77;;
20928;SDS011;21895;47.072;15.132;2023-05-20T05:43:01;12.13;;;7.87;;
20928;SDS011;21895;47.072;15.132;2023-05-20T05:45:28;11.12;;;8.18;;
20928;SDS011;21895;47.072;15.132;2023-05-20T05:47:54;12.82;;;7.55;;
20928;SDS011;21895;47.072;15.132;2023-05-20T05:50:21;11.43;;;7.22;;
20928;SDS011;21895;47.072;15.132;2023-05-20T05:52:47;10.70;;;7.85;;
20928;SDS011;21895;47.072;15.132;2023-05-20T05:55:14;18.47;;;7.53;;
20928;SDS011;21895;47.072;15.132;2023-05-20T05:57:42;9.05;;;7.05;;
20928;SDS011;21895;47.072;15.132;2023-05-20T06:00:09;8.23;;;6.75;;
20928;SDS011;21895;47.072;15.132;2023-05-20T06:02:36;11.48;;;7.28;;
20928;SDS011;21895;47.072;15.132;2023-05-20T06:05:03;8.98;;;7.03;;
20928;SDS011;21895;47.072;15.132;2023-05-20T06:07:31;11.07;;;7.70;;
20928;SDS011;21895;47.072;15.132;2023-05-20T06:09:57;12.25;;;7.18;;
20928;SDS011;21895;47.072;15.132;2023-05-20T06:12:24;12.50;;;7.43;;
20928;SDS011;21895;47.072;15.132;2023-05-20T06:14:50;10.32;;;7.20;;
20928;SDS011;21895;47.072;15.132;2023-05-20T06:17:17;10.75;;;7.28;;
20928;SDS011;21895;47.072;15.132;2023-05-20T06:19:44;10.35;;;7.65;;
20928;SDS011;21895;47.072;15.132;2023-05-20T06:22:10;12.88;;;6.72;;
20928;SDS011;21895;47.072;15.132;2023-05-20T06:24:37;10.02;;;6.25;;
20928;SDS011;21895;47.072;15.132;2023-05-20T06:27:04;10.40;;;6.68;;
20928;SDS011;21895;47.072;15.132;2023-05-20T06:29:30;8.73;;;6.82;;
20928;SDS011;21895;47.072;15.132;2023-05-20T06:31:58;10.93;;;6.57;;
20928;SDS011;21895;47.072;15.132;2023-05-20T06:34:24;8.23;;;6.30;;
20928;SDS011;21895;47.072;15.132;2023-05-20T06:36:51;9.70;;;6.60;;
20928;SDS011;21895;47.072;15.132;2023-05-20T06:39:18;7.30;;;5.80;;
20928;SDS011;21895;47.072;15.132;2023-05-20T06:41:45;8.00;;;5.68;;
20928;SDS011;21895;47.072;15.132;2023-05-20T06:44:11;9.55;;;5.62;;
20928;SDS011;21895;47.072;15.132;2023-05-20T06:46:38;10.75;;;6.47;;
20928;SDS011;21895;47.072;15.132;2023-05-20T06:49:04;10.82;;;6.37;;
20928;SDS011;21895;47.072;15.132;2023-05-20T06:51:31;8.30;;;6.40;;
20928;SDS011;21895;47.072;15.132;2023-05-20T06:53:57;7.95;;;6.30;;
20928;SDS011;21895;47.072;15.132;2023-05-20T06:56:24;11.30;;;6.80;;
20928;SDS011;21895;47.072;15.132;2023-05-20T06:58:50;13.32;;;5.87;;
20928;SDS011;21895;47.072;15.132;2023-05-20T07:01:17;7.75;;;6.22;;
20928;SDS011;21895;47.072;15.132;2023-05-20T07:03:44;7.95;;;6.07;;
20928;SDS011;21895;47.072;15.132;2023-05-20T07:06:10;9.43;;;6.62;;
20928;SDS011;21895;47.072;15.132;2023-05-20T07:08:39;10.20;;;6.12;;
20928;SDS011;21895;47.072;15.132;2023-05-20T07:11:05;8.35;;;6.30;;
20928;SDS011;21895;47.072;15.132;2023-05-20T07:13:32;18.23;;;6.07;;
20928;SDS011;21895;47.072;15.132;2023-05-20T07:15:58;9.93;;;6.10;;
20928;SDS011;21895;47.072;15.132;2023-05-20T07:18:25;8.23;;;6.60;;
20928;SDS011;21895;47.072;15.132;2023-05-20T07:20:53;8.50;;;6.15;;
20928;SDS011;21895;47.072;15.132;2023-05-20T07:23:21;7.50;;;5.70;;
20928;SDS011;21895;47.072;15.132;2023-05-20T07:25:48;12.95;;;6.40;;
20928;SDS011;21895;47.072;15.132;2023-05-20T07:28:16;12.18;;;6.57;;
20928;SDS011;21895;47.072;15.132;2023-05-20T07:30:42;10.13;;;6.47;;
20928;SDS011;21895;47.072;15.132;2023-05-20T07:33:15;14.90;;;8.15;;
20928;SDS011;21895;47.072;15.132;2023-05-20T07:35:42;10.38;;;7.45;;
20928;SDS011;21895;47.072;15.132;2023-05-20T07:38:10;12.43;;;7.35;;
20928;SDS011;21895;47.072;15.132;2023-05-20T07:40:38;9.07;;;6.37;;
20928;SDS011;21895;47.072;15.132;2023-05-20T07:43:06;9.38;;;6.53;;
20928;SDS011;21895;47.072;15.132;2023-05-20T07:45:34;6.55;;;5.55;;
20928;SDS011;21895;47.072;15.132;2023-05-20T07:48:02;7.55;;;6.18;;
20928;SDS011;21895;47.072;15.132;2023-05-20T07:50:29;9.98;;;6.65;;
20928;SDS011;21895;47.072;15.132;2023-05-20T07:52:56;12.32;;;6.47;;
20928;SDS011;21895;47.072;15.132;2023-05-20T07:55:22;11.45;;;6.57;;
20928;SDS011;21895;47.072;15.132;2023-05-20T07:57:49;10.18;;;6.30;;
20928;SDS011;21895;47.072;15.132;2023-05-20T08:00:16;8.88;;;6.35;;
20928;SDS011;21895;47.072;15.132;2023-05-20T08:02:43;10.80;;;6.85;;
20928;SDS011;21895;47.072;15.132;2023-05-20T08:05:10;10.60;;;6.90;;
20928;SDS011;21895;47.072;15.132;2023-05-20T08:07:36;13.68;;;7.40;;
20928;SDS011;21895;47.072;15.132;2023-05-20T08:10:03;9.60;;;6.70;;
20928;SDS011;21895;47.072;15.132;2023-05-20T08:12:30;9.43;;;7.10;;
20928;SDS011;21895;47.072;15.132;2023-05-20T08:14:57;10.48;;;6.82;;
20928;SDS011;21895;47.072;15.132;2023-05-20T08:17:24;11.07;;;6.53;;
20928;SDS011;21895;47.072;15.132;2023-05-20T08:19:50;10.18;;;7.30;;
20928;SDS011;21895;47.072;15.132;2023-05-20T08:22:17;9.80;;;7.40;;
20928;SDS011;21895;47.072;15.132;2023-05-20T08:24:43;11.32;;;6.57;;
20928;SDS011;21895;47.072;15.132;2023-05-20T08:27:10;10.10;;;6.87;;
20928;SDS011;21895;47.072;15.132;2023-05-20T08:29:36;14.13;;;7.03;;
20928;SDS011;21895;47.072;15.132;2023-05-20T08:32:03;13.75;;;7.25;;
20928;SDS011;21895;47.072;15.132;2023-05-20T08:34:30;11.55;;;6.62;;
20928;SDS011;21895;47.072;15.132;2023-05-20T08:36:57;9.00;;;7.15;;
20928;SDS011;21895;47.072;15.132;2023-05-20T08:39:24;9.88;;;6.60;;
20928;SDS011;21895;47.072;15.132;2023-05-20T08:41:51;11.82;;;7.40;;
20928;SDS011;21895;47.072;15.132;2023-05-20T08:44:18;13.48;;;7.40;;
20928;SDS011;21895;47.072;15.132;2023-05-20T08:46:47;10.57;;;7.18;;
20928;SDS011;21895;47.072;15.132;2023-05-20T08:49:15;12.43;;;6.72;;
20928;SDS011;21895;47.072;15.132;2023-05-20T08:51:41;15.32;;;7.00;;
20928;SDS011;21895;47.072;15.132;2023-05-20T08:54:10;8.85;;;7.03;;
20928;SDS011;21895;47.072;15.132;2023-05-20T08:56:41;11.55;;;7.68;;
20928;SDS011;21895;47.072;15.132;2023-05-20T08:59:08;10.52;;;7.35;;
20928;SDS011;21895;47.072;15.132;2023-05-20T09:01:37;13.60;;;7.03;;
20928;SDS011;21895;47.072;15.132;2023-05-20T09:04:08;7.90;;;6.53;;
20928;SDS011;21895;47.072;15.132;2023-05-20T09:06:43;12.52;;;6.68;;
20928;SDS011;21895;47.072;15.132;2023-05-20T09:09:11;12.80;;;6.68;;
20928;SDS011;21895;47.072;15.132;2023-05-20T09:11:39;10.75;;;6.57;;
20928;SDS011;21895;47.072;15.132;2023-05-20T09:14:06;9.15;;;7.28;;
20928;SDS011;21895;47.072;15.132;2023-05-20T09:16:34;9.40;;;7.32;;
20928;SDS011;21895;47.072;15.132;2023-05-20T09:19:01;13.52;;;8.02;;
20928;SDS011;21895;47.072;15.132;2023-05-20T09:21:30;12.32;;;7.03;;
20928;SDS011;21895;47.072;15.132;2023-05-20T09:24:00;9.07;;;7.40;;
20928;SDS011;21895;47.072;15.132;2023-05-20T09:26:27;10.77;;;8.07;;
20928;SDS011;21895;47.072;15.132;2023-05-20T09:28:57;12.50;;;7.25;;
20928;SDS011;21895;47.072;15.132;2023-05-20T09:31:25;13.35;;;6.80;;
20928;SDS011;21895;47.072;15.132;2023-05-20T09:34:01;12.68;;;6.70;;
20928;SDS011;21895;47.072;15.132;2023-05-20T09:36:29;9.63;;;7.05;;
20928;SDS011;21895;47.072;15.132;2023-05-20T09:38:59;10.38;;;7.18;;
20928;SDS011;21895;47.072;15.132;2023-05-20T09:41:33;11.00;;;7.15;;
20928;SDS011;21895;47.072;15.132;2023-05-20T09:44:11;10.13;;;7.18;;
20928;SDS011;21895;47.072;15.132;2023-05-20T09:46:38;8.75;;;7.00;;
20928;SDS011;21895;47.072;15.132;2023-05-20T09:49:07;12.37;;;6.93;;
20928;SDS011;21895;47.072;15.132;2023-05-20T09:51:34;7.95;;;6.65;;
20928;SDS011;21895;47.072;15.132;2023-05-20T09:54:01;13.00;;;7.43;;
20928;SDS011;21895;47.072;15.132;2023-05-20T09:56:30;12.77;;;7.93;;
20928;SDS011;21895;47.072;15.132;2023-05-20T09:58:59;11.43;;;7.22;;
20928;SDS011;21895;47.072;15.132;2023-05-20T10:01:29;10.07;;;7.65;;
20928;SDS011;21895;47.072;15.132;2023-05-20T10:03:56;9.25;;;7.18;;
20928;SDS011;21895;47.072;15.132;2023-05-20T10:06:40;12.07;;;7.45;;
20928;SDS011;21895;47.072;15.132;2023-05-20T10:11:42;12.37;;;7.37;;
20928;SDS011;21895;47.072;15.132;2023-05-20T10:14:47;9.15;;;7.50;;
20928;SDS011;21895;47.072;15.132;2023-05-20T10:18:17;13.80;;;7.18;;
20928;SDS011;21895;47.072;15.132;2023-05-20T10:21:23;12.60;;;7.15;;
20928;SDS011;21895;47.072;15.132;2023-05-20T10:23:50;12.35;;;7.18;;
20928;SDS011;21895;47.072;15.132;2023-05-20T10:26:17;9.98;;;7.47;;
20928;SDS011;21895;47.072;15.132;2023-05-20T10:28:45;12.25;;;7.18;;
20928;SDS011;21895;47.072;15.132;2023-05-20T10:31:15;13.02;;;7.22;;
20928;SDS011;21895;47.072;15.132;2023-05-20T10:33:46;8.98;;;6.65;;
20928;SDS011;21895;47.072;15.132;2023-05-20T10:36:24;9.32;;;7.15;;
20928;SDS011;21895;47.072;15.132;2023-05-20T10:38:56;18.58;;;7.35;;
20928;SDS011;21895;47.072;15.132;2023-05-20T10:41:24;9.05;;;7.20;;
20928;SDS011;21895;47.072;15.132;2023-05-20T10:44:25;12.25;;;6.57;;
20928;SDS011;21895;47.072;15.132;2023-05-20T10:47:01;8.05;;;6.80;;
20928;SDS011;21895;47.072;15.132;2023-05-20T10:49:49;10.15;;;7.40;;
20928;SDS011;21895;47.072;15.132;2023-05-20T10:52:16;11.82;;;7.90;;
20928;SDS011;21895;47.072;15.132;2023-05-20T10:54:47;9.93;;;7.22;;
20928;SDS011;21895;47.072;15.132;2023-05-20T10:57:26;12.57;;;7.53;;
20928;SDS011;21895;47.072;15.132;2023-05-20T10:59:54;16.27;;;7.53;;
20928;SDS011;21895;47.072;15.132;2023-05-20T11:02:21;11.15;;;7.62;;
20928;SDS011;21895;47.072;15.132;2023-05-20T11:04:51;11.98;;;7.20;;
20928;SDS011;21895;47.072;15.132;2023-05-20T11:07:27;12.85;;;8.05;;
20928;SDS011;21895;47.072;15.132;2023-05-20T11:09:56;19.40;;;7.60;;
20928;SDS011;21895;47.072;15.132;2023-05-20T11:12:24;7.28;;;6.30;;
20928;SDS011;21895;47.072;15.132;2023-05-20T11:14:52;16.48;;;7.57;;
20928;SDS011;21895;47.072;15.132;2023-05-20T11:17:19;9.20;;;6.95;;
20928;SDS011;21895;47.072;15.132;2023-05-20T11:19:46;12.27;;;7.22;;
20928;SDS011;21895;47.072;15.132;2023-05-20T11:22:13;9.05;;;7.05;;
20928;SDS011;21895;47.072;15.132;2023-05-20T11:24:40;9.95;;;7.15;;
20928;SDS011;21895;47.072;15.132;2023-05-20T11:27:07;12.45;;;7.57;;
20928;SDS011;21895;47.072;15.132;2023-05-20T11:29:34;13.18;;;7.20;;
20928;SDS011;21895;47.072;15.132;2023-05-20T11:32:00;11.55;;;6.70;;
20928;SDS011;21895;47.072;15.132;2023-05-20T11:34:33;12.40;;;6.72;;
20928;SDS011;21895;47.072;15.132;2023-05-20T11:37:02;10.55;;;6.62;;
20928;SDS011;21895;47.072;15.132;2023-05-20T11:39:33;10.93;;;6.82;;
20928;SDS011;21895;47.072;15.132;2023-05-20T11:42:02;12.00;;;7.25;;
20928;SDS011;21895;47.072;15.132;2023-05-20T11:44:30;11.00;;;7.00;;
20928;SDS011;21895;47.072;15.132;2023-05-20T11:47:00;9.65;;;6.47;;
20928;SDS011;21895;47.072;15.132;2023-05-20T11:49:28;9.77;;;6.72;;
20928;SDS011;21895;47.072;15.132;2023-05-20T11:51:55;9.30;;;6.75;;
20928;SDS011;21895;47.072;15.132;2023-05-20T11:54:22;8.25;;;6.53;;
20928;SDS011;21895;47.072;15.132;2023-05-20T11:56:49;12.52;;;7.00;;
20928;SDS011;21895;47.072;15.132;2023-05-20T11:59:16;12.20;;;6.90;;
20928;SDS011;21895;47.072;15.132;2023-05-20T12:01:42;10.57;;;6.50;;
20928;SDS011;21895;47.072;15.132;2023-05-20T12:04:10;10.43;;;7.00;;
20928;SDS011;21895;47.072;15.132;2023-05-20T12:06:40;8.52;;;6.60;;
20928;SDS011;21895;47.072;15.132;2023-05-20T12:09:11;8.07;;;6.65;;
20928;SDS011;21895;47.072;15.132;2023-05-20T12:11:39;8.80;;;6.80;;
20928;SDS011;21895;47.072;15.132;2023-05-20T12:14:06;10.15;;;6.75;;
20928;SDS011;21895;47.072;15.132;2023-05-20T12:16:34;12.27;;;6.75;;
20928;SDS011;21895;47.072;15.132;2023-05-20T12:19:02;10.07;;;6.80;;
20928;SDS011;21895;47.072;15.132;2023-05-20T12:21:29;14.05;;;7.07;;
20928;SDS011;21895;47.072;15.132;2023-05-20T12:23:57;13.60;;;6.62;;
20928;SDS011;21895;47.072;15.132;2023-05-20T12:26:24;9.25;;;6.68;;
20928;SDS011;21895;47.072;15.132;2023-05-20T12:28:53;10.00;;;6.80;;
20928;SDS011;21895;47.072;15.132;2023-05-20T12:31:20;11.52;;;7.18;;
20928;SDS011;21895;47.072;15.132;2023-05-20T12:33:47;10.15;;;7.00;;
20928;SDS011;21895;47.072;15.132;2023-05-20T12:36:13;8.77;;;6.90;;
20928;SDS011;21895;47.072;15.132;2023-05-20T12:38:40;11.00;;;7.32;;
20928;SDS011;21895;47.072;15.132;2023-05-20T12:41:07;10.15;;;6.57;;
20928;SDS011;21895;47.072;15.132;2023-05-20T12:43:36;9.20;;;6.53;;
20928;SDS011;21895;47.072;15.132;2023-05-20T12:46:04;10.20;;;7.03;;
20928;SDS011;21895;47.072;15.132;2023-05-20T12:48:30;9.65;;;6.95;;
20928;SDS011;21895;47.072;15.132;2023-05-20T12:50:57;9.25;;;6.60;;
20928;SDS011;21895;47.072;15.132;2023-05-20T12:53:24;12.55;;;6.82;;
20928;SDS011;21895;47.072;15.132;2023-05-20T12:55:51;8.90;;;7.00;;
20928;SDS011;21895;47.072;15.132;2023-05-20T12:58:17;8.50;;;6.85;;
20928;SDS011;21895;47.072;15.132;2023-05-20T13:00:44;9.35;;;7.00;;
20928;SDS011;21895;47.072;15.132;2023-05-20T13:03:11;8.23;;;6.45;;
20928;SDS011;21895;47.072;15.132;2023-05-20T13:05:37;9.20;;;6.90;;
20928;SDS011;21895;47.072;15.132;2023-05-20T13:08:04;9.63;;;7.10;;
20928;SDS011;21895;47.072;15.132;2023-05-20T13:10:31;14.65;;;7.45;;
20928;SDS011;21895;47.072;15.132;2023-05-20T13:12:58;12.10;;;7.05;;
20928;SDS011;21895;47.072;15.132;2023-05-20T13:15:25;15.50;;;7.37;;
20928;SDS011;21895;47.072;15.132;2023-05-20T13:17:51;11.05;;;7.37;;
20928;SDS011;21895;47.072;15.132;2023-05-20T13:20:18;11.45;;;6.80;;
20928;SDS011;21895;47.072;15.132;2023-05-20T13:22:45;13.10;;;7.10;;
20928;SDS011;21895;47.072;15.132;2023-05-20T13:25:12;10.45;;;7.20;;
20928;SDS011;21895;47.072;15.132;2023-05-20T13:27:39;11.70;;;7.00;;
20928;SDS011;21895;47.072;15.132;2023-05-20T13:30:06;9.65;;;7.45;;
20928;SDS011;21895;47.072;15.132;2023-05-20T13:32:33;17.90;;;7.10;;
20928;SDS011;21895;47.072;15.132;2023-05-20T13:35:00;10.77;;;7.57;;
20928;SDS011;21895;47.072;15.132;2023-05-20T13:37:26;11.80;;;7.40;;
20928;SDS011;21895;47.072;15.132;2023-05-20T13:39:53;10.15;;;7.10;;
20928;SDS011;21895;47.072;15.132;2023-05-20T13:42:20;11.65;;;7.20;;
20928;SDS011;21895;47.072;15.132;2023-05-20T13:44:46;12.70;;;7.15;;
20928;SDS011;21895;47.072;15.132;2023-05-20T13:47:13;10.93;;;7.25;;
20928;SDS011;21895;47.072;15.132;2023-05-20T13:49:40;10.68;;;7.05;;
20928;SDS011;21895;47.072;15.132;2023-05-20T13:52:06;10.30;;;7.18;;
20928;SDS011;21895;47.072;15.132;2023-05-20T13:54:33;12.18;;;7.50;;
20928;SDS011;21895;47.072;15.132;2023-05-20T13:56:59;10.60;;;6.95;;
20928;SDS011;21895;47.072;15.132;2023-05-20T13:59:28;12.02;;;7.03;;
20928;SDS011;21895;47.072;15.132;2023-05-20T14:01:55;11.43;;;7.62;;
20928;SDS011;21895;47.072;15.132;2023-05-20T14:04:23;14.68;;;8.15;;
20928;SDS011;21895;47.072;15.132;2023-05-20T14:06:50;11.43;;;7.55;;
20928;SDS011;21895;47.072;15.132;2023-05-20T14:09:17;14.45;;;7.97;;
20928;SDS011;21895;47.072;15.132;2023-05-20T14:11:43;9.45;;;7.55;;
20928;SDS011;21895;47.072;15.132;2023-05-20T14:14:10;15.60;;;7.55;;
20928;SDS011;21895;47.072;15.132;2023-05-20T14:16:36;12.95;;;8.05;;
20928;SDS011;21895;47.072;15.132;2023-05-20T14:19:04;18.02;;;8.25;;
20928;SDS011;21895;47.072;15.132;2023-05-20T14:21:33;12.85;;;8.57;;
20928;SDS011;21895;47.072;15.132;2023-05-20T14:24:00;11.93;;;8.10;;
20928;SDS011;21895;47.072;15.132;2023-05-20T14:26:26;11.35;;;7.97;;
20928;SDS011;21895;47.072;15.132;2023-05-20T14:28:53;11.52;;;8.38;;
20928;SDS011;21895;47.072;15.132;2023-05-20T14:31:19;11.50;;;8.05;;